• Join FlightAware (Why Join?)
  • Login
  • US Flag 
06:39AM EDT


 

Airport Tracker/Info


-or-


 

Live Flight TrackerFlight Track Log ✈ QTR928 ✈ 10-May-2013 ✈ CYUL - OTBD

Flight Track Log - Related Links

Times and Time Zones

All times are in EDT time to prevent confusion due to time zone crossing. See the QTR928 flight status page for this flight to view local times or setup timezone preferences in your user account.

Time Position Orientation Groundspeed Altitude Reporting Facility
EDT Latitude Longitude Course Direction KTS MPH feet Rate Location/Type
11:28PM 45.4900 -73.7280 41° Northeast 175 201 1,300  Level FlightAware
11:29PM 45.5090 -73.7070 38° Northeast 192 221 2,000 1,560 Climbing FlightAware
11:29PM 45.5350 -73.6800 36° Northeast 209 241 2,900 1,500 Climbing FlightAware
11:30PM 45.5570 -73.6580 35° Northeast 230 265 3,400 1,020 Climbing FlightAware
11:30PM 45.5710 -73.6470 29° Northeast 252 290 3,600 900 Climbing FlightAware
11:30PM 45.6080 -73.6300 18° North 287 330 4,100 1,380 Climbing FlightAware
11:31PM 45.6430 -73.6160 16° North 304 350 4,900 1,620 Climbing FlightAware
11:31PM 45.6850 -73.5980 17° North 331 381 5,600 1,800 Climbing FlightAware
11:32PM 45.7300 -73.5840 12° North 337 388 6,700 2,280 Climbing FlightAware
11:32PM 45.7670 -73.5740 11° North 342 394 7,700 2,400 Climbing FlightAware
11:33PM 45.8140 -73.5630 North 344 396 8,900 2,400 Climbing FlightAware
11:33PM 45.8320 -73.5610 North 345 397 9,300 2,520 Climbing FlightAware
11:33PM 45.8880 -73.5550 North 344 396 10,800 2,280 Climbing FlightAware
11:34PM 45.9160 -73.5570 357° North 344 396 11,400 2,040 Climbing FlightAware
11:34PM 45.9670 -73.5740 347° North 339 390 12,700 2,100 Climbing FlightAware
11:35PM 46.0380 -73.6110 340° North 346 398 14,400 2,100 Climbing FlightAware
11:36PM 46.1030 -73.6440 341° North 354 407 15,900 2,100 Climbing FlightAware
11:37PM 46.2080 -73.6490 358° North 385 443 17,900 2,040 Climbing FlightAware
11:38PM 46.2720 -73.6020 27° Northeast 390 449 19,300 1,620 Climbing FlightAware
11:38PM 46.3470 -73.5480 26° Northeast 409 471 20,200 1,020 Climbing FlightAware
11:39PM 46.4150 -73.4970 27° Northeast 430 495 20,800 780 Climbing FlightAware
11:40PM 46.4880 -73.4400 28° Northeast 458 527 21,300 840 Climbing FlightAware
11:40PM 46.5670 -73.3580 36° Northeast 480 552 22,000 1,320 Climbing FlightAware
11:41PM 46.6390 -73.2820 36° Northeast 487 560 23,200 1,500 Climbing FlightAware
11:42PM 46.7210 -73.1920 37° Northeast 500 575 24,200 1,320 Climbing FlightAware
11:42PM 46.7930 -73.1060 39° Northeast 511 588 25,100 1,260 Climbing FlightAware
11:43PM 46.8610 -73.0100 44° Northeast 520 598 25,900 1,200 Climbing FlightAware
11:44PM 46.9370 -72.8940 46° Northeast 531 611 26,800 1,200 Climbing FlightAware
11:45PM 47.0020 -72.7860 49° Northeast 540 621 27,600 1,200 Climbing FlightAware
11:45PM 47.0680 -72.6750 49° Northeast 548 631 28,400 960 Climbing FlightAware
11:46PM 47.1430 -72.5480 49° Northeast 550 633 29,000 420 Climbing FlightAware
11:47PM 47.2080 -72.4360 49° Northeast 549 632 29,000  Level FlightAware
11:47PM 47.2820 -72.3080 50° Northeast 550 633 29,000  Level FlightAware
11:48PM 47.3480 -72.1940 49° Northeast 548 631 29,000  Level FlightAware
11:49PM 47.4210 -72.0670 50° Northeast 546 628 29,000  Level FlightAware
11:49PM 47.4860 -71.9530 50° Northeast 545 627 29,000  Level FlightAware
11:50PM 47.5510 -71.8390 50° Northeast 540 621 29,000  Level FlightAware
11:51PM 47.6220 -71.7130 50° Northeast 540 621 29,000  Level FlightAware
11:52PM 47.6860 -71.6000 50° Northeast 540 621 29,000  Level FlightAware
11:52PM 47.7580 -71.4720 50° Northeast 540 621 29,000  Level FlightAware
11:53PM 47.8210 -71.3580 51° Northeast 544 626 29,000  Level FlightAware
11:54PM 47.8850 -71.2440 50° Northeast 542 624 29,000  Level FlightAware
11:54PM 47.9560 -71.1150 51° Northeast 544 626 29,000  Level FlightAware
11:55PM 48.0200 -70.9990 50° Northeast 545 627 29,000  Level FlightAware
11:56PM 48.0920 -70.8690 50° Northeast 546 628 29,000  Level FlightAware
11:56PM 48.1480 -70.7680 50° Northeast 546 628 29,000  Level FlightAware
11:58PM 48.2680 -70.5450 51° Northeast 546 628 29,000  Level FlightAware
11:58PM 48.3250 -70.4410 50° Northeast 546 628 29,000  Level FlightAware
11:59PM 48.3370 -70.4180 52° Northeast 546 628 29,000  Level FlightAware
12:00AM 48.3900 -70.3200 51° Northeast 546 628 29,000  Level FlightAware
12:00AM 48.4580 -70.1940 51° Northeast 546 628 29,000  Level FlightAware
12:01AM 48.5120 -70.0930 51° Northeast 546 628 29,000  Level FlightAware
12:02AM 48.5660 -69.9920 51° Northeast 546 628 29,000  Level FlightAware
12:02AM 48.6200 -69.8910 51° Northeast 546 628 29,000 2,100 Level FlightAware
12:03AM 48.7167 -69.6500 51° Northeast 550 633 31,000 2,220 Climbing Gander Center
12:03AM 48.8000 -69.5000 50° Northeast 540 621 31,000  Level Montreal Center
12:04AM 48.8833 -69.3333 53° Northeast 540 621 31,000  Level Montreal Center
12:05AM 49.0000 -69.1500 46° Northeast 540 621 31,000  Level Montreal Center
12:06AM 49.0833 -68.9500 57° Northeast 540 621 31,000  Level Montreal Center
12:07AM 49.1667 -68.7833 53° Northeast 550 633 31,000  Level Montreal Center
12:08AM 49.2667 -68.5833 52° Northeast 550 633 31,000  Level Montreal Center
12:09AM 49.3667 -68.4000 50° Northeast 550 633 31,000  Level Montreal Center
12:10AM 49.4500 -68.2167 55° Northeast 550 633 31,000  Level Montreal Center
12:11AM 49.5500 -68.0500 47° Northeast 550 633 31,000  Level Montreal Center
12:12AM 49.6333 -67.8500 57° Northeast 550 633 31,000  Level Montreal Center
12:13AM 49.7167 -67.6500 57° Northeast 540 621 31,000  Level Montreal Center
12:14AM 49.8167 -67.4500 52° Northeast 540 621 31,000  Level Montreal Center
12:15AM 49.9167 -67.2833 47° Northeast 540 621 31,000  Level Montreal Center
12:16AM 50.0000 -67.0833 57° Northeast 540 621 31,000  Level Montreal Center
12:17AM 50.0833 -66.9000 55° Northeast 540 621 31,000  Level Montreal Center
12:18AM 50.1667 -66.7000 57° Northeast 550 633 31,000  Level Montreal Center
12:19AM 50.2500 -66.5500 49° Northeast 550 633 31,000  Level Montreal Center
12:20AM 50.3333 -66.3500 57° Northeast 550 633 31,000  Level Montreal Center
12:21AM 50.4333 -66.1667 49° Northeast 550 633 31,000  Level Montreal Center
12:22AM 50.5167 -65.9667 57° Northeast 550 633 31,000  Level Montreal Center
12:23AM 50.6167 -65.7833 49° Northeast 550 633 31,000  Level Montreal Center
12:24AM 50.6667 -65.6667 56° Northeast 550 633 31,000  Level Gander Center
12:24AM 50.7000 -65.5833 58° Northeast 550 633 31,000  Level Moncton Center
12:25AM 50.7667 -65.4667 48° Northeast 550 633 31,000  Level Gander Center
12:26AM 50.8500 -65.2500 59° Northeast 550 633 31,000  Level Gander Center
12:27AM 50.9500 -65.0833 46° Northeast 550 633 31,000  Level Gander Center
12:28AM 51.0167 -64.8667 64° Northeast 550 633 31,000  Level Gander Center
12:29AM 51.1167 -64.6667 51° Northeast 550 633 31,000  Level Gander Center
12:30AM 51.2000 -64.4500 58° Northeast 560 644 31,000  Level Gander Center
12:30AM 51.2500 -64.3667 46° Northeast 560 644 31,000  Level Moncton Center
12:31AM 51.3333 -64.1833 54° Northeast 560 644 31,000  Level Moncton Center
12:32AM 51.3667 -64.0500 68° East 560 644 31,000  Level Gander Center
12:33AM 51.4667 -63.8333 53° Northeast 560 644 31,000  Level Gander Center
12:34AM 51.5500 -63.6500 54° Northeast 560 644 31,000  Level Gander Center
12:35AM 51.6333 -63.4333 58° Northeast 560 644 31,000  Level Gander Center
12:36AM 51.7333 -63.2333 51° Northeast 560 644 31,000  Level Gander Center
12:37AM 51.8167 -62.9833 62° Northeast 560 644 31,000  Level Gander Center
12:38AM 51.9000 -62.8000 54° Northeast 560 644 31,000  Level Gander Center
12:39AM 51.9833 -62.5833 58° Northeast 560 644 31,000  Level Gander Center
12:39AM 52.0167 -62.4667 65° Northeast 560 644 31,000  Level Moncton Center
12:40AM 52.0667 -62.3667 51° Northeast 570 656 31,000  Level Gander Center
12:41AM 52.1500 -62.1500 58° Northeast 570 656 31,000  Level Gander Center
12:42AM 52.2333 -61.9333 58° Northeast 570 656 31,000  Level Gander Center
12:42AM 52.2833 -61.8333 51° Northeast 570 656 31,000  Level Moncton Center
12:43AM 52.3667 -61.6000 60° Northeast 570 656 31,000  Level Moncton Center
12:44AM 52.4167 -61.4667 58° Northeast 570 656 31,000  Level Gander Center
12:45AM 52.5000 -61.2833 53° Northeast 570 656 31,000  Level Gander Center
12:46AM 52.6000 -61.0667 53° Northeast 570 656 31,000  Level Gander Center
12:46AM 52.6167 -60.9500 77° East 570 656 31,000  Level Moncton Center
12:47AM 52.7167 -60.7500 50° Northeast 570 656 31,000  Level Moncton Center
12:48AM 52.8167 -60.5167 55° Northeast 570 656 31,000  Level Moncton Center
12:49AM 52.8833 -60.3167 61° Northeast 570 656 31,000  Level Moncton Center
12:50AM 52.9333 -60.2000 55° Northeast 570 656 31,000  Level Gander Center
12:51AM 53.0333 -59.9833 52° Northeast 570 656 31,000  Level Gander Center
12:52AM 53.1167 -59.7500 59° Northeast 580 667 31,000  Level Gander Center
12:53AM 53.2167 -59.5167 54° Northeast 580 667 31,000  Level Gander Center
12:54AM 53.3167 -59.3167 50° Northeast 580 667 31,000  Level Gander Center
12:55AM 53.4000 -59.0667 61° Northeast 580 667 31,000  Level Gander Center
12:56AM 53.4833 -58.8667 55° Northeast 580 667 31,000  Level Gander Center
12:57AM 53.5833 -58.6333 54° Northeast 580 667 31,000  Level Gander Center
12:58AM 53.6667 -58.4000 59° Northeast 580 667 31,000  Level Gander Center
12:59AM 53.7500 -58.1667 59° Northeast 580 667 31,000  Level Gander Center
01:00AM 53.8333 -57.9333 59° Northeast 580 667 31,000  Level Gander Center
01:01AM 53.9333 -57.7333 50° Northeast 580 667 31,000 120 Level Gander Center
01:02AM 54.0167 -57.4667 62° Northeast 580 667 31,300 480 Climbing Gander Center
01:03AM 54.1000 -57.2667 55° Northeast 580 667 32,000 300 Climbing Gander Center
01:04AM 54.1833 -57.0000 62° Northeast 590 679 32,000  Level Gander Center
01:05AM 54.2667 -56.7833 57° Northeast 590 679 32,000  Level Gander Center
01:05AM 54.3167 -56.6500 57° Northeast 590 679 32,000  Level Moncton Center
01:06AM 54.3500 -56.5167 67° East 590 679 32,000  Level Gander Center
01:07AM 54.4500 -56.3000 52° Northeast 590 679 32,000  Level Gander Center
01:08AM 54.5333 -56.0333 62° Northeast 590 679 32,000  Level Gander Center
01:09AM 54.6167 -55.8167 56° Northeast 590 679 32,000  Level Gander Center
01:10AM 54.6667 -55.5833 70° East 590 679 32,000  Level Gander Center
01:11AM 54.7333 -55.2833 69° East 590 679 32,000  Level Gander Center
01:12AM 54.8000 -55.0167 66° East 590 679 32,000  Level Gander Center
01:13AM 54.8500 -54.7500 72° East 590 679 32,000  Level Gander Center
01:13AM 54.8833 -54.6500 60° Northeast 590 679 32,000  Level Moncton Center
01:14AM 54.9333 -54.5000 60° Northeast 590 679 32,000  Level Gander Center
01:15AM 54.9833 -54.2333 72° East 590 679 32,000  Level Gander Center
01:16AM 55.0500 -53.9833 65° Northeast 590 679 32,000  Level Gander Center
01:17AM 55.1000 -53.7333 71° East 590 679 32,000  Level Gander Center
01:18AM 55.1667 -53.5167 62° Northeast 590 679 32,000  Level Gander Center
01:19AM 55.2333 -53.2667 65° Northeast 590 679 32,000  Level Gander Center
01:20AM 55.3000 -53.0000 66° East 590 679 32,000  Level Gander Center
01:21AM 55.3667 -52.7167 67° East 590 679 32,000  Level Gander Center
01:22AM 55.4333 -52.4667 65° Northeast 590 679 32,000  Level Gander Center
01:23AM 55.4667 -52.1833 78° East 590 679 32,000  Level Gander Center
01:24AM 55.5333 -51.9000 67° East 590 679 32,000  Level Gander Center
01:25AM 55.6000 -51.6500 65° Northeast 590 679 32,000  Level Gander Center
01:26AM 55.6667 -51.3667 67° East 590 679 32,000  Level Gander Center
01:27AM 55.7333 -51.1167 65° Northeast 590 679 32,000  Level Gander Center
01:28AM 55.7667 -50.8333 78° East 590 679 32,000  Level Gander Center
01:30AM 55.8727 -50.4582 63° Northeast  Level FlightAware Approximate
01:37AM 56.2838 -48.8369 66° East  Level FlightAware Approximate
01:38AM 56.3393 -48.6021 67° East  Level FlightAware Approximate
01:39AM 56.3943 -48.3666 67° East  Level FlightAware Approximate
01:40AM 56.4489 -48.1305 67° East  Level FlightAware Approximate
01:40AM 56.5333 -47.4500 68° East 600 690 32,000  Level Gander Center
01:41AM 56.5030 -47.8936 67° East  Level FlightAware Approximate
01:41AM 56.6167 -47.1667 62° Northeast 590 679 32,000  Level Gander Center
01:42AM 56.5567 -47.6561 68° East  Level FlightAware Approximate
01:42AM 56.6667 -46.9000 71° East 590 679 32,000  Level Gander Center
01:43AM 56.6099 -47.4179 68° East  Level FlightAware Approximate
01:43AM 56.7333 -46.6333 65° Northeast 600 690 32,000  Level Gander Center
01:44AM 56.6627 -47.1791 68° East  Level FlightAware Approximate
01:44AM 56.7833 -46.3333 73° East 600 690 32,000  Level Gander Center
01:45AM 56.7150 -46.9396 68° East  Level FlightAware Approximate
01:45AM 56.8500 -46.0500 67° East 600 690 32,000  Level Gander Center
01:46AM 56.9167 -45.7833 65° Northeast 600 690 32,000  Level Gander Center
01:47AM 56.9500 -45.4833 78° East 590 679 32,000  Level Gander Center
01:48AM 57.0167 -45.2167 65° Northeast 590 679 32,000  Level Gander Center
01:49AM 57.0667 -44.9333 72° East 590 679 32,000  Level Gander Center
01:50AM 57.1333 -44.6500 66° East 590 679 32,000  Level Gander Center
01:51AM 57.1833 -44.3500 73° East 590 679 32,000  Level Gander Center
01:52AM 57.2500 -44.0667 66° East 590 679 32,000  Level Gander Center
01:53AM 57.3000 -43.8000 71° East 590 679 32,000  Level Gander Center
01:54AM 57.3500 -43.5167 72° East 590 679 32,000  Level Gander Center
01:55AM 57.4000 -43.2167 73° East 590 679 32,000  Level Gander Center
01:56AM 57.4500 -42.9333 72° East 590 679 32,000  Level Gander Center
01:57AM 57.5167 -42.6500 66° East 590 679 32,000  Level Gander Center
01:58AM 57.5500 -42.3333 79° East 590 679 32,000  Level Gander Center
01:59AM 57.6167 -42.0500 66° East 590 679 32,000  Level Gander Center
02:00AM 57.6500 -41.7667 77° East 590 679 32,000  Level Gander Center
02:01AM 57.7167 -41.4833 66° East 600 690 32,000  Level Gander Center
02:02AM 57.7500 -41.1667 79° East 590 679 32,000  Level Gander Center
02:03AM 57.7833 -40.8833 77° East 600 690 32,000  Level Gander Center
02:04AM 57.8500 -40.6000 66° East 600 690 32,000  Level Gander Center
02:05AM 57.8833 -40.3167 77° East 600 690 32,000  Level Gander Center
02:06AM 57.9333 -40.0000 73° East 600 690 32,000  Level Gander Center
02:07AM 57.9500 -39.6833 84° East 600 690 32,000  Level Gander Center
02:08AM 57.9667 -39.3833 84° East 590 679 32,000  Level Gander Center
02:09AM 57.9833 -39.0833 84° East 590 679 32,000  Level Gander Center
02:10AM 57.9833 -38.7833 90° East 590 679 32,000  Level Gander Center
02:11AM 58.0000 -38.4833 84° East 590 679 32,000  Level Gander Center
02:12AM 58.0167 -38.1833 84° East 590 679 32,000  Level Gander Center
02:13AM 58.0167 -37.8500 90° East 590 679 32,000  Level Gander Center
02:14AM 58.0333 -37.5500 84° East 590 679 32,000  Level Gander Center
02:15AM 58.0167 -37.2500 96° East 590 679 32,000  Level Gander Center
02:16AM 58.0333 -36.9500 84° East 590 679 32,000  Level Gander Center
02:18AM 58.0500 -36.2833 87° East 570 656 32,000  Level Gander Center
02:19AM 58.0500 -35.9833 90° East 580 667 32,000 -60 Level Gander Center
02:21AM 58.0550 -35.6179 88° East  Level FlightAware Approximate
02:28AM 58.0642 -33.7453 89° East  Level FlightAware Approximate
02:29AM 58.0632 -33.4777 90° East  Level FlightAware Approximate
02:30AM 58.0617 -33.2102 90° East  Level FlightAware Approximate
02:31AM 58.0597 -32.9427 91° East  Level FlightAware Approximate
02:32AM 58.0571 -32.6752 91° East  Level FlightAware Approximate
02:33AM 58.0539 -32.4078 91° East  Level FlightAware Approximate
02:34AM 58.0502 -32.1404 91° East  Level FlightAware Approximate
02:35AM 58.0459 -31.8731 92° East  Level FlightAware Approximate
02:36AM 58.0410 -31.6059 92° East  Level FlightAware Approximate
02:37AM 58.0356 -31.3387 92° East  Level FlightAware Approximate
02:38AM 58.0296 -31.0716 92° East  Level FlightAware Approximate
02:39AM 58.0231 -30.8046 93° East  Level FlightAware Approximate
02:40AM 58.0160 -30.5378 93° East  Level FlightAware Approximate
02:41AM 58.0084 -30.2710 93° East  Level FlightAware Approximate
02:42AM 58.0001 -30.0043 93° East  Level FlightAware Approximate
02:43AM 57.9615 -29.7468 106° East  Level FlightAware Approximate
02:44AM 57.9219 -29.4908 106° East  Level FlightAware Approximate
02:45AM 57.8819 -29.2353 106° East  Level FlightAware Approximate
02:46AM 57.8413 -28.9804 107° East  Level FlightAware Approximate
02:47AM 57.8002 -28.7261 107° East  Level FlightAware Approximate
02:48AM 57.7586 -28.4724 107° East  Level FlightAware Approximate
02:49AM 57.7165 -28.2193 107° East  Level FlightAware Approximate
02:50AM 57.6739 -27.9667 107° East  Level FlightAware Approximate
02:51AM 57.6308 -27.7148 108° East  Level FlightAware Approximate
02:52AM 57.5872 -27.4635 108° East  Level FlightAware Approximate
02:53AM 57.5430 -27.2127 108° East  Level FlightAware Approximate
02:54AM 57.4985 -26.9626 108° East  Level FlightAware Approximate
02:55AM 57.4534 -26.7131 108° East  Level FlightAware Approximate
02:56AM 57.4078 -26.4642 109° East  Level FlightAware Approximate
02:57AM 57.3617 -26.2159 109° East  Level FlightAware Approximate
02:58AM 57.3151 -25.9683 109° East  Level FlightAware Approximate
02:59AM 57.2681 -25.7213 109° East  Level FlightAware Approximate
03:00AM 57.2206 -25.4749 110° East  Level FlightAware Approximate
03:01AM 57.1726 -25.2291 110° East  Level FlightAware Approximate
03:02AM 57.1241 -24.9840 110° East  Level FlightAware Approximate
03:03AM 57.0751 -24.7395 110° East  Level FlightAware Approximate
03:04AM 57.0257 -24.4957 110° East  Level FlightAware Approximate
03:05AM 56.9757 -24.2526 111° Southeast  Level FlightAware Approximate
03:06AM 56.9254 -24.0100 111° Southeast  Level FlightAware Approximate
03:07AM 56.8745 -23.7682 111° Southeast  Level FlightAware Approximate
03:08AM 56.8232 -23.5270 111° Southeast  Level FlightAware Approximate
03:09AM 56.7714 -23.2865 111° Southeast  Level FlightAware Approximate
03:10AM 56.7192 -23.0466 112° Southeast  Level FlightAware Approximate
03:11AM 56.6665 -22.8074 112° Southeast  Level FlightAware Approximate
03:12AM 56.6132 -22.5689 112° Southeast  Level FlightAware Approximate
03:13AM 56.5595 -22.3312 112° Southeast  Level FlightAware Approximate
03:14AM 56.5053 -22.0941 112° Southeast  Level FlightAware Approximate
03:15AM 56.4507 -21.8577 113° Southeast  Level FlightAware Approximate
03:16AM 56.3956 -21.6219 113° Southeast  Level FlightAware Approximate
03:17AM 56.3401 -21.3869 113° Southeast  Level FlightAware Approximate
03:18AM 56.2841 -21.1525 113° Southeast  Level FlightAware Approximate
03:19AM 56.2277 -20.9188 113° Southeast  Level FlightAware Approximate
03:20AM 56.1709 -20.6859 114° Southeast  Level FlightAware Approximate
03:21AM 56.1136 -20.4536 114° Southeast  Level FlightAware Approximate
03:22AM 56.0559 -20.2220 114° Southeast  Level FlightAware Approximate
03:23AM 55.9990 -19.9904 101° East  Level FlightAware Approximate
03:24AM 55.9716 -19.7421 101° East  Level FlightAware Approximate
03:25AM 55.9438 -19.4942 101° East  Level FlightAware Approximate
03:26AM 55.9154 -19.2467 101° East  Level FlightAware Approximate
03:27AM 55.8866 -18.9996 102° East  Level FlightAware Approximate
03:28AM 55.8573 -18.7528 102° East  Level FlightAware Approximate
03:29AM 55.8274 -18.5064 102° East  Level FlightAware Approximate
03:30AM 55.7971 -18.2603 102° East  Level FlightAware Approximate
03:31AM 55.7663 -18.0147 102° East  Level FlightAware Approximate
03:32AM 55.7350 -17.7695 103° East  Level FlightAware Approximate
03:33AM 55.7033 -17.5246 103° East  Level FlightAware Approximate
03:34AM 55.6710 -17.2802 103° East  Level FlightAware Approximate
03:35AM 55.6382 -17.0361 103° East  Level FlightAware Approximate
03:36AM 55.6050 -16.7925 103° East  Level FlightAware Approximate
03:37AM 55.5713 -16.5492 104° East  Level FlightAware Approximate
03:38AM 55.5371 -16.3064 104° East  Level FlightAware Approximate
03:39AM 55.5024 -16.0641 104° East  Level FlightAware Approximate
03:40AM 55.4672 -15.8221 104° East  Level FlightAware Approximate
03:41AM 55.4316 -15.5806 104° East  Level FlightAware Approximate
03:42AM 55.3955 -15.3395 105° East  Level FlightAware Approximate
03:43AM 55.3589 -15.0989 105° East  Level FlightAware Approximate
03:44AM 55.3219 -14.8587 105° East  Level FlightAware Approximate
03:45AM 55.2844 -14.6190 105° East  Level FlightAware Approximate
03:46AM 55.2464 -14.3797 105° East  Level FlightAware Approximate
03:47AM 55.2079 -14.1409 106° East  Level FlightAware Approximate
03:48AM 55.1690 -13.9025 106° East  Level FlightAware Approximate
03:49AM 55.1296 -13.6647 106° East  Level FlightAware Approximate
03:50AM 55.0897 -13.4272 106° East  Level FlightAware Approximate
03:51AM 55.0494 -13.1903 106° East  Level FlightAware Approximate
03:52AM 55.0090 -12.9537 106° East  Level FlightAware Approximate
03:53AM 54.9693 -12.7169 106° East  Level FlightAware Approximate
03:54AM 54.9292 -12.4805 106° East  Level FlightAware Approximate
03:55AM 54.8886 -12.2447 107° East  Level FlightAware Approximate
03:56AM 54.8476 -12.0093 107° East  Level FlightAware Approximate
03:57AM 54.8061 -11.7744 107° East  Level FlightAware Approximate
03:58AM 54.7642 -11.5400 107° East  Level FlightAware Approximate
03:59AM 54.7218 -11.3061 107° East  Level FlightAware Approximate
04:00AM 54.6790 -11.0726 108° East  Level FlightAware Approximate
04:01AM 54.6357 -10.8397 108° East  Level FlightAware Approximate
04:01AM 54.1324 -8.9788 108° East 490 564 31,400  Level FlightAware UK
04:02AM 54.1198 -8.9043 106° East 490 564 31,500  Climbing FlightAware UK
04:02AM 54.1070 -8.8298 106° East 490 564 31,400  Descending FlightAware UK
04:02AM 54.0941 -8.7548 106° East 488 562 31,500 120 Climbing FlightAware UK
04:02AM 54.0814 -8.6806 106° East 488 562 31,500  Level FlightAware UK
04:03AM 54.0683 -8.6060 107° East 488 562 31,500 -180 Level FlightAware UK
04:03AM 54.0554 -8.5319 106° East 490 564 31,400 -180 Descending FlightAware UK
04:03AM 54.0421 -8.4566 107° East 492 566 31,400 120 Level FlightAware UK
04:04AM 54.0290 -8.3824 107° East 486 559 31,500 120 Climbing FlightAware UK
04:04AM 54.0159 -8.3086 107° East 492 566 31,500 -180 Level FlightAware UK
04:04AM 54.0030 -8.2346 107° East 488 562 31,400  Descending FlightAware UK
04:05AM 53.9901 -8.1606 107° East 492 566 31,500 120 Climbing FlightAware UK
04:05AM 53.9770 -8.0863 107° East 488 562 31,500  Level FlightAware UK
04:05AM 53.9638 -8.0124 107° East 488 562 31,500  Level FlightAware UK
04:05AM 53.9503 -7.9387 107° East 490 564 31,500  Level FlightAware UK
04:06AM 53.9369 -7.8653 107° East 484 557 31,500  Level FlightAware UK
04:06AM 53.9235 -7.7923 107° East 490 564 31,500  Level FlightAware UK
04:06AM 53.9101 -7.7191 107° East 488 562 31,500 -180 Level FlightAware UK
04:07AM 53.8968 -7.6459 107° East 486 559 31,400 -180 Descending FlightAware UK
04:07AM 53.8835 -7.5727 107° East 488 562 31,400 120 Level FlightAware UK
04:07AM 53.8701 -7.4995 107° East 486 559 31,500 120 Climbing FlightAware UK
04:08AM 53.8565 -7.4265 107° East 488 562 31,500 -180 Level FlightAware UK
04:08AM 53.8429 -7.3534 108° East 490 564 31,400  Descending FlightAware UK
04:08AM 53.8293 -7.2805 108° East 494 568 31,500 120 Climbing FlightAware UK
04:08AM 53.8155 -7.2070 108° East 492 566 31,500  Level FlightAware UK
04:09AM 53.8018 -7.1345 108° East 490 564 31,500  Level FlightAware UK
04:09AM 53.7883 -7.0622 108° East 488 562 31,500  Level FlightAware UK
04:09AM 53.7748 -6.9904 108° East 488 562 31,500  Level FlightAware UK
04:10AM 53.7611 -6.9192 108° East 484 557 31,500  Level FlightAware UK
04:10AM 53.7475 -6.8478 108° East 486 559 31,500  Level FlightAware UK
04:10AM 53.7338 -6.7759 108° East 486 559 31,500  Level FlightAware UK
04:11AM 53.7201 -6.7040 108° East 486 559 31,500  Level FlightAware UK
04:11AM 53.7062 -6.6321 108° East 486 559 31,500  Level FlightAware UK
04:11AM 53.6922 -6.5600 108° East 488 562 31,500 -180 Level FlightAware UK
04:11AM 53.6783 -6.4879 108° East 486 559 31,400  Descending FlightAware UK
04:12AM 53.6643 -6.4161 108° East 484 557 31,500 120 Climbing FlightAware UK
04:12AM 53.6501 -6.3444 108° East 486 559 31,500  Level FlightAware UK
04:12AM 53.6358 -6.2726 109° East 490 564 31,500  Level FlightAware UK
04:13AM 53.6216 -6.2007 108° East 490 564 31,500  Level FlightAware UK
04:13AM 53.6074 -6.1288 108° East 488 562 31,500 -180 Level FlightAware UK
04:13AM 53.5931 -6.0572 109° East 484 557 31,400  Descending FlightAware UK
04:14AM 53.5787 -5.9850 109° East 484 557 31,500 120 Climbing FlightAware UK
04:14AM 53.5645 -5.9137 109° East 486 559 31,500  Level FlightAware UK
04:14AM 53.5501 -5.8426 109° East 488 562 31,500  Level FlightAware UK
04:14AM 53.5356 -5.7714 109° East 484 557 31,500  Level FlightAware UK
04:15AM 53.5238 -5.6986 105° East 484 557 31,500  Level FlightAware UK
04:15AM 53.5155 -5.6240 101° East 488 562 31,500  Level FlightAware UK
04:15AM 53.5089 -5.5489 98° East 488 562 31,500 -180 Level FlightAware UK
04:16AM 53.5047 -5.4732 95° East 490 564 31,400 -180 Descending FlightAware UK
04:16AM 53.5021 -5.3974 93° East 490 564 31,400 120 Level FlightAware UK
04:16AM 53.4999 -5.3223 93° East 488 562 31,500 120 Climbing FlightAware UK
04:17AM 53.4978 -5.2470 93° East 490 564 31,500  Level FlightAware UK
04:17AM 53.4956 -5.1717 93° East 498 573 31,500 -180 Level FlightAware UK
04:17AM 53.4932 -5.0959 93° East 488 562 31,400  Descending FlightAware UK
04:17AM 53.4906 -5.0211 93° East 494 568 31,500  Climbing FlightAware UK
04:18AM 53.4867 -4.9225 94° East 490 564 31,400  Descending FlightAware UK
04:18AM 53.4840 -4.8490 94° East 488 562 31,500 120 Climbing FlightAware UK
04:18AM 53.4810 -4.7751 94° East 490 564 31,500  Level FlightAware UK
04:19AM 53.4779 -4.7014 94° East 488 562 31,500  Level FlightAware UK
04:19AM 53.4748 -4.6281 94° East 490 564 31,500  Level FlightAware UK
04:19AM 53.4717 -4.5550 94° East 492 566 31,500 2,760 Level FlightAware UK
04:20AM 53.4700 -4.5220 94° East 524 603 33,000  Climbing FlightAware
04:20AM 53.4665 -4.4338 94° East 488 562 31,500 -2,700 Descending FlightAware UK
04:20AM 53.4634 -4.3614 94° East 486 559 31,500 3,720 Level FlightAware UK
04:20AM 53.4630 -4.3500 94° East 522 601 33,000  Climbing FlightAware
04:21AM 53.4595 -4.2652 94° East 488 562 31,500 -2,460 Descending FlightAware UK
04:21AM 53.4562 -4.1920 94° East 490 564 31,500 3,300 Level FlightAware UK
04:21AM 53.4550 -4.1750 94° East 520 598 33,000  Climbing FlightAware
04:21AM 53.4519 -4.0958 94° East 490 564 31,500 -2,700 Descending FlightAware UK
04:22AM 53.4487 -4.0239 94° East 490 564 31,500 3,720 Level FlightAware UK
04:22AM 53.4480 -4.0210 94° East 517 595 33,000  Climbing FlightAware
04:22AM 53.4444 -3.9283 94° East 486 559 31,500 -2,520 Descending FlightAware UK
04:22AM 53.4411 -3.8568 94° East 482 555 31,500 4,080 Level FlightAware UK
04:22AM 53.4410 -3.8570 94° East 516 594 33,000  Climbing FlightAware
04:23AM 53.4367 -3.7615 94° East 484 557 31,500 -2,400 Descending FlightAware UK
04:23AM 53.4335 -3.6897 94° East 484 557 31,500 3,600 Level FlightAware UK
04:23AM 53.4330 -3.6750 94° East 519 597 33,000  Climbing FlightAware
04:23AM 53.4288 -3.5929 94° East 488 562 31,500  Descending FlightAware UK
04:24AM 53.4250 -3.5140 94° East 517 595 33,000  Climbing FlightAware
04:24AM 53.4193 -3.4010 94° East 484 557 31,500  Descending FlightAware UK
04:24AM 53.4160 -3.3340 94° East 516 594 33,000 2,160 Climbing FlightAware
04:25AM 53.4111 -3.2390 95° East 519 597 33,000 -2,280 Level FlightAware ADS-B
04:25AM 53.4073 -3.1619 95° East 486 559 31,500  Descending FlightAware UK
04:25AM 53.4045 -3.1123 95° East 519 597 33,000  Climbing FlightAware ADS-B
04:26AM 53.4009 -3.0421 95° East 484 557 31,500 -2,760 Descending FlightAware UK
04:26AM 53.3970 -2.9702 95° East 486 559 31,400 2,640 Descending FlightAware UK
04:26AM 53.3936 -2.9073 95° East 518 596 33,000 1,740 Climbing FlightAware ADS-B
04:27AM 53.3854 -2.7566 95° East 519 597 33,000  Level FlightAware ADS-B
04:27AM 53.3779 -2.6218 95° East 518 596 33,000  Level FlightAware ADS-B
04:28AM 53.3709 -2.5001 95° East 517 595 33,000 -1,800 Level FlightAware ADS-B
04:28AM 53.3665 -2.4187 95° East 486 559 31,500  Descending FlightAware UK
04:28AM 53.3640 -2.3808 95° East 515 593 33,000 -240 Climbing FlightAware ADS-B
04:29AM 53.3594 -2.3001 95° East 486 559 31,400 -2,400 Descending FlightAware UK
04:29AM 53.3551 -2.2283 96° East 490 564 31,500 3,300 Climbing FlightAware UK
04:29AM 53.3530 -2.2010 96° East 513 590 33,000 3,300 Climbing FlightAware
04:29AM 53.3448 -2.1249 100° East 513 590 33,000 -2,940 Level FlightAware ADS-B
04:30AM 53.3380 -2.0652 100° East 486 559 31,500  Descending FlightAware UK
04:30AM 53.3314 -2.0065 100° East 512 589 33,000 1,920 Climbing FlightAware ADS-B
04:30AM 53.3181 -1.8875 101° East 513 590 33,000  Level FlightAware ADS-B
04:31AM 53.3054 -1.7702 100° East 514 592 33,000  Level FlightAware ADS-B
04:32AM 53.2925 -1.6501 100° East 512 589 33,000 -1,620 Level FlightAware ADS-B
04:32AM 53.2821 -1.5510 100° East 488 562 31,500  Descending FlightAware UK
04:32AM 53.2790 -1.5250 100° East 510 587 33,000  Climbing FlightAware
04:33AM 53.2674 -1.4116 100° East 482 555 31,500  Descending FlightAware UK
04:33AM 53.2603 -1.3467 100° East 510 587 33,000 1,860 Climbing FlightAware ADS-B
04:33AM 53.2472 -1.2275 100° East 511 588 33,000 -1,680 Level FlightAware ADS-B
04:34AM 53.2368 -1.1320 100° East 486 559 31,500  Descending FlightAware UK
04:34AM 53.2339 -1.1059 100° East 509 586 33,000  Climbing FlightAware ADS-B
04:34AM 53.2264 -1.0387 100° East 482 555 31,500 -2,580 Descending FlightAware UK
04:34AM 53.2188 -0.9703 101° East 478 550 31,500  Level FlightAware UK
04:35AM 53.2109 -0.9002 101° East 482 555 31,500 2,880 Level FlightAware UK
04:35AM 53.2070 -0.8650 101° East 513 590 33,000 5,580 Climbing FlightAware
04:35AM 53.2040 -0.8404 101° East 510 587 33,000 -3,960 Level FlightAware ADS-B
04:35AM 53.1949 -0.7608 101° East 486 559 31,500  Descending FlightAware UK
04:36AM 53.1901 -0.7187 101° East 515 593 33,000  Climbing FlightAware ADS-B
04:36AM 53.1787 -0.6197 101° East 488 562 31,500  Descending FlightAware UK
04:36AM 53.1712 -0.5558 101° East 514 592 33,000  Climbing FlightAware ADS-B
04:37AM 53.1624 -0.4800 101° East 484 557 31,500  Descending FlightAware UK
04:37AM 53.1543 -0.4123 101° East 515 593 33,000 1,800 Climbing FlightAware ADS-B
04:37AM 53.1403 -0.2940 101° East 515 593 33,000  Level FlightAware ADS-B
04:38AM 53.1239 -0.1526 101° East 512 589 33,000  Level FlightAware ADS-B
04:38AM 53.1215 -0.1124 96° East 511 588 33,000  Level FlightAware ADS-B
04:39AM 53.1168 0.0110 94° East 510 587 33,000  Level FlightAware ADS-B
04:39AM 53.1117 0.1512 93° East 508 585 33,000  Level FlightAware ADS-B
04:40AM 53.1058 0.2788 94° East 508 585 33,000  Level FlightAware ADS-B
04:40AM 53.0993 0.4017 95° East 508 585 33,000 -1,740 Level FlightAware ADS-B
04:41AM 53.0938 0.5005 95° East 490 564 31,400  Descending FlightAware UK
04:41AM 53.0869 0.6180 95° East 504 580 33,000 60 Climbing FlightAware ADS-B
04:42AM 53.0813 0.7102 95° East 484 557 31,500  Descending FlightAware UK
04:42AM 53.0795 0.7407 95° East 505 581 33,000 -300 Climbing FlightAware ADS-B
04:42AM 53.0758 0.8026 95° East 484 557 31,400  Descending FlightAware UK
04:42AM 53.0725 0.8577 95° East 507 583 33,000 2,040 Climbing FlightAware ADS-B
04:43AM 53.0653 0.9773 96° East 511 588 33,000  Level FlightAware ADS-B
04:43AM 53.0582 1.1000 95° East 513 590 33,000 -1,800 Level FlightAware ADS-B
04:44AM 53.0538 1.1774 95° East 492 566 31,500  Descending FlightAware UK
04:44AM 53.0517 1.2230 95° East 513 590 33,000  Climbing FlightAware ADS-B
04:44AM 53.0478 1.2952 95° East 488 562 31,500  Descending FlightAware UK
04:45AM 53.0431 1.3855 95° East 512 589 33,000  Climbing FlightAware ADS-B
04:45AM 53.0380 1.4823 95° East 490 564 31,500  Descending FlightAware UK
04:45AM 53.0359 1.5154 95° East 512 589 33,000  Climbing FlightAware ADS-B
04:45AM 53.0324 1.5768 95° East 490 564 31,500  Descending FlightAware UK
04:46AM 53.0280 1.6515 95° East 510 587 33,000  Climbing FlightAware ADS-B
04:46AM 53.0241 1.7170 95° East 488 562 31,500  Descending FlightAware UK
04:46AM 53.0209 1.7746 95° East 511 588 33,000  Climbing FlightAware ADS-B
04:46AM 53.0172 1.8337 95° East 488 562 31,500 -2,760 Descending FlightAware UK
04:47AM 53.0131 1.9046 96° East 490 564 31,500 3,720 Level FlightAware UK
04:47AM 53.0120 1.9160 96° East 510 587 33,000  Climbing FlightAware
04:47AM 53.0074 1.9980 96° East 488 562 31,500 -2,520 Descending FlightAware UK
04:47AM 53.0032 2.0680 96° East 492 566 31,500 4,080 Level FlightAware UK
04:48AM 53.0030 2.0660 96° East 511 588 33,000  Climbing FlightAware
04:48AM 52.9958 2.1855 96° East 492 566 31,500  Descending FlightAware UK
04:48AM 52.9930 2.2250 96° East 511 588 33,000  Climbing FlightAware
04:48AM 52.9885 2.3023 96° East 492 566 31,500 -2,700 Descending FlightAware UK
04:49AM 52.9841 2.3722 96° East 490 564 31,500 3,060 Level FlightAware UK
04:49AM 52.9830 2.3950 96° East 508 585 33,000  Climbing FlightAware
04:49AM 52.9749 2.5123 96° East 488 562 31,500  Descending FlightAware UK
04:50AM 52.9730 2.5430 96° East 507 583 33,000  Climbing FlightAware
04:50AM 52.9645 2.6743 96° East 486 559 31,500  Descending FlightAware UK
04:50AM 52.9600 2.7350 96° East 510 587 33,000 1,560 Climbing FlightAware
04:51AM 52.9500 2.8810 96° East 510 587 33,000 -1,680 Level FlightAware
04:51AM 52.9456 2.9530 96° East 492 566 31,500  Descending FlightAware UK
04:52AM 52.9390 3.0410 96° East 507 583 33,000 1,380 Climbing FlightAware
04:52AM 52.9290 3.1950 96° East 507 583 33,000  Level FlightAware
04:53AM 52.9160 3.3660 97° East 505 581 33,000 -1,380 Level FlightAware
04:53AM 52.9092 3.4610 97° East 486 559 31,500  Descending FlightAware UK
04:54AM 52.9040 3.5390 97° East 507 583 33,000  Climbing FlightAware
04:54AM 52.8958 3.6460 97° East 490 564 31,500  Descending FlightAware UK
04:55AM 52.8930 3.6870 97° East 510 587 33,000  Climbing FlightAware
04:55AM 52.8841 3.8085 97° East 492 566 31,500  Descending FlightAware UK
04:55AM 52.8800 3.8490 97° East 510 587 33,000 960 Climbing FlightAware
04:56AM 52.8731 3.9476 97° East 494 568 32,100 1,320 Descending FlightAware UK
04:56AM 52.8670 4.0230 97° East 508 585 34,000 480 Climbing FlightAware
04:56AM 52.8577 4.1321 97° East 488 562 32,500  Descending FlightAware UK
04:57AM 52.8550 4.1770 97° East 506 582 34,000 1,500 Climbing FlightAware
04:57AM 52.8400 4.3530 98° East 507 583 34,000 -1,380 Level FlightAware
04:58AM 52.8324 4.4533 98° East 490 564 32,400 120 Descending FlightAware UK
04:58AM 52.8280 4.5030 98° East 506 582 34,100 600 Climbing FlightAware
04:58AM 52.8230 4.5679 98° East 488 562 32,700 -1,740 Descending FlightAware UK
04:59AM 52.8152 4.6592 98° East 490 564 33,000 4,560 Climbing FlightAware UK
04:59AM 52.8150 4.6560 98° East 497 572 34,600 960 Climbing FlightAware
04:59AM 52.8094 4.7272 98° East 488 562 33,300 -1,920 Descending FlightAware UK
04:59AM 52.8041 4.7928 98° East 484 557 33,500 3,600 Climbing FlightAware UK
04:59AM 52.8010 4.8230 98° East 490 564 35,000  Climbing FlightAware
05:00AM 52.7948 4.9037 98° East 486 559 33,500 -2,400 Descending FlightAware UK
05:00AM 52.7889 4.9707 98° East 486 559 33,500 4,500 Level FlightAware UK
05:00AM 52.7880 4.9720 98° East 494 568 35,000 1,860 Climbing FlightAware
05:01AM 52.7740 5.1360 98° East 499 574 35,000 -1,140 Level FlightAware
05:01AM 52.7606 5.2859 98° East 490 564 33,500  Descending FlightAware UK
05:02AM 52.7610 5.2860 98° East 500 575 35,000  Climbing FlightAware
05:02AM 52.7524 5.3763 98° East 484 557 33,500  Descending FlightAware UK
05:02AM 52.7470 5.4410 98° East 502 578 35,000  Climbing FlightAware
05:03AM 52.7351 5.5571 98° East 490 564 33,500  Descending FlightAware UK
05:03AM 52.7310 5.6120 98° East 504 580 35,000  Climbing FlightAware
05:03AM 52.7230 5.6940 98° East 488 562 33,500 -2,400 Descending FlightAware UK
05:04AM 52.7167 5.7627 99° East 488 562 33,500 4,500 Level FlightAware UK
05:04AM 52.7170 5.7640 99° East 506 582 35,000 -360 Climbing FlightAware
05:04AM 52.7093 5.8308 99° East 490 564 33,400 -2,700 Descending FlightAware UK
05:04AM 52.7031 5.9003 98° East 490 564 33,500 3,300 Climbing FlightAware UK
05:04AM 52.7020 5.9300 98° East 506 582 35,000 1,740 Climbing FlightAware
05:05AM 52.6870 6.0820 99° East 504 580 35,000  Level FlightAware
05:06AM 52.6710 6.2430 99° East 503 579 35,000  Level FlightAware
05:06AM 52.6560 6.3950 99° East 502 578 35,000  Level FlightAware
05:07AM 52.6400 6.5550 99° East 498 573 35,000  Level FlightAware
05:08AM 52.6230 6.7230 99° East 494 568 35,000  Level FlightAware
05:09AM 52.6090 6.8650 99° East 491 565 35,000  Level FlightAware
05:09AM 52.5920 7.0250 100° East 492 566 35,000  Level FlightAware
05:10AM 52.5750 7.1850 100° East 494 568 35,000  Level FlightAware
05:11AM 52.5600 7.3290 100° East 496 571 35,000  Level FlightAware
05:11AM 52.5420 7.4990 100° East 496 571 35,000  Level FlightAware
05:12AM 52.5250 7.6480 101° East 492 566 35,000  Level FlightAware
05:13AM 52.5070 7.8090 100° East 492 566 35,000  Level FlightAware
05:13AM 52.4910 7.9530 100° East 490 564 35,000  Level FlightAware
05:14AM 52.4720 8.1220 100° East 488 562 35,000  Level FlightAware
05:15AM 52.4550 8.2670 101° East 486 559 35,000  Level FlightAware
05:16AM 52.4380 8.4100 101° East 484 557 35,000  Level FlightAware
05:16AM 52.4210 8.5540 101° East 485 558 35,000  Level FlightAware
05:17AM 52.4030 8.7100 101° East 485 558 35,000  Level FlightAware
05:18AM 52.3890 8.8250 101° East 483 556 35,000  Level FlightAware
05:18AM 52.3660 9.0140 101° East 479 551 35,000  Level FlightAware
05:19AM 52.3480 9.1610 101° East 479 551 35,000  Level FlightAware
05:20AM 52.3320 9.2920 101° East 481 554 35,000  Level FlightAware
05:20AM 52.3110 9.4580 102° East 481 554 35,000  Level FlightAware
05:21AM 52.2920 9.6020 102° East 482 555 35,000  Level FlightAware
05:22AM 52.2730 9.7540 101° East 481 554 35,000  Level FlightAware
05:23AM 52.2550 9.8920 102° East 482 555 35,000  Level FlightAware
05:23AM 52.2340 10.0470 102° East 484 557 35,000  Level FlightAware
05:24AM 52.2140 10.2030 102° East 485 558 35,000  Level FlightAware
05:25AM 52.1960 10.3380 102° East 485 558 35,000  Level FlightAware
05:25AM 52.1720 10.5130 103° East 486 559 35,000  Level FlightAware
05:26AM 52.1540 10.6420 103° East 486 559 35,000  Level FlightAware
05:27AM 52.1250 10.8500 103° East 489 563 35,000  Level FlightAware
05:28AM 52.1040 11.0110 102° East 490 564 35,000  Level FlightAware
05:28AM 52.0850 11.1500 102° East 490 564 35,000  Level FlightAware
05:29AM 52.0650 11.2950 103° East 487 560 35,000  Level FlightAware
05:30AM 52.0430 11.4540 103° East 486 559 35,000  Level FlightAware
05:30AM 52.0230 11.5970 103° East 486 559 35,000  Level FlightAware
05:31AM 52.0000 11.7580 103° East 485 558 35,000  Level FlightAware
05:32AM 51.9750 11.8990 106° East 484 557 35,000  Level FlightAware
05:33AM 51.9490 12.0390 107° East 485 558 35,000  Level FlightAware
05:33AM 51.9220 12.1930 106° East 484 557 35,000  Level FlightAware
05:34AM 51.8980 12.3320 106° East 483 556 35,000  Level FlightAware
05:35AM 51.8690 12.4930 106° East 482 555 35,000  Level FlightAware
05:35AM 51.8460 12.6260 106° East 478 550 35,000  Level FlightAware
05:36AM 51.8210 12.7650 106° East 477 549 35,000  Level FlightAware
05:37AM 51.7930 12.9150 107° East 477 549 35,000  Level FlightAware
05:37AM 51.7680 13.0520 106° East 477 549 35,000  Level FlightAware
05:38AM 51.7400 13.2000 107° East 477 549 35,000  Level FlightAware
05:39AM 51.7140 13.3440 106° East 476 548 35,000  Level FlightAware
05:40AM 51.6880 13.4800 107° East 476 548 35,000  Level FlightAware
05:40AM 51.6600 13.6260 107° East 475 547 35,000  Level FlightAware
05:41AM 51.6340 13.7620 107° East 475 547 35,000  Level FlightAware
05:42AM 51.6050 13.9120 107° East 476 548 35,000  Level FlightAware
05:42AM 51.5790 14.0480 107° East 476 548 35,000  Level FlightAware
05:43AM 51.5530 14.1830 107° East 475 547 35,000  Level FlightAware
05:44AM 51.5230 14.3340 108° East 474 545 35,000  Level FlightAware
05:44AM 51.4960 14.4680 108° East 475 547 35,000  Level FlightAware
05:45AM 51.4660 14.6210 107° East 475 547 35,000  Level FlightAware
05:46AM 51.4390 14.7540 108° East 471 542 35,000  Level FlightAware
05:47AM 51.4150 14.8750 108° East 466 536 35,000  Level FlightAware
05:47AM 51.3820 15.0320 109° East 465 535 35,000  Level FlightAware
05:48AM 51.3570 15.1570 108° East 467 537 35,000  Level FlightAware
05:49AM 51.3260 15.3050 108° East 470 541 35,000  Level FlightAware
05:49AM 51.2990 15.4370 108° East 474 545 35,000  Level FlightAware
05:50AM 51.2700 15.5760 108° East 477 549 35,000  Level FlightAware
05:51AM 51.2380 15.7240 109° East 480 552 35,000  Level FlightAware
05:51AM 51.2100 15.8570 109° East 480 552 35,000  Level FlightAware
05:52AM 51.1770 16.0130 109° East 481 554 35,000  Level FlightAware
05:53AM 51.1520 16.1250 110° East 479 551 35,000  Level FlightAware
05:54AM 51.1200 16.2760 109° East 476 548 35,000  Level FlightAware
05:54AM 51.0880 16.4220 109° East 475 547 35,000  Level FlightAware
05:55AM 51.0580 16.5550 110° East 474 545 35,000  Level FlightAware
05:56AM 51.0290 16.6870 109° East 474 545 35,000  Level FlightAware
05:56AM 50.9960 16.8340 110° East 471 542 35,000  Level FlightAware
05:57AM 50.9680 16.9610 109° East 470 541 35,000  Level FlightAware
05:58AM 50.9350 17.1060 110° East 466 536 35,000  Level FlightAware
05:58AM 50.9060 17.2350 110° East 466 536 35,000  Level FlightAware
05:59AM 50.8770 17.3600 110° East 466 536 35,000  Level FlightAware
06:00AM 50.8440 17.5040 110° East 465 535 35,000  Level FlightAware
06:01AM 50.8130 17.6380 110° East 466 536 35,000  Level FlightAware
06:01AM 50.7840 17.7620 110° East 465 535 35,000  Level FlightAware
06:02AM 50.7500 17.9060 110° East 464 534 35,000  Level FlightAware
06:03AM 50.7220 18.0270 110° East 464 534 35,000  Level FlightAware
06:03AM 50.6910 18.1570 111° Southeast 464 534 35,000  Level FlightAware
06:04AM 50.6540 18.3100 111° Southeast 464 534 35,000  Level FlightAware
06:05AM 50.6270 18.4250 110° East 463 533 35,000  Level FlightAware
06:05AM 50.5930 18.5640 111° Southeast 463 533 35,000  Level FlightAware
06:06AM 50.5570 18.7140 111° Southeast 465 535 35,000  Level FlightAware
06:07AM 50.5270 18.8330 112° Southeast 467 537 35,000  Level FlightAware
06:08AM 50.4960 18.9600 111° Southeast 467 537 35,000  Level FlightAware
06:08AM 50.4600 19.1060 111° Southeast 468 539 35,000  Level FlightAware
06:09AM 50.4300 19.2260 111° Southeast 469 540 35,000  Level FlightAware
06:10AM 50.3920 19.3770 111° Southeast 468 539 35,000  Level FlightAware
06:10AM 50.3620 19.4960 112° Southeast 468 539 35,000  Level FlightAware
06:11AM 50.3300 19.6220 112° Southeast 467 537 35,000  Level FlightAware
06:12AM 50.2950 19.7600 112° Southeast 469 540 35,000  Level FlightAware
06:12AM 50.2620 19.8880 112° Southeast 469 540 35,000  Level FlightAware
06:13AM 50.2310 20.0090 112° Southeast 470 541 35,000  Level FlightAware
06:14AM 50.1920 20.1600 112° Southeast 469 540 35,000  Level FlightAware
06:15AM 50.1590 20.2850 112° Southeast 469 540 35,000  Level FlightAware
06:15AM 50.1260 20.4100 112° Southeast 468 539 35,000  Level FlightAware
06:16AM 50.0930 20.5350 112° Southeast 468 539 35,000  Level FlightAware
06:17AM 50.0540 20.6820 112° Southeast 468 539 35,000  Level FlightAware
06:17AM 50.0230 20.7990 112° Southeast 468 539 35,000  Level FlightAware
06:18AM 49.9840 20.9450 113° Southeast 468 539 35,000  Level FlightAware
06:19AM 49.9510 21.0670 113° Southeast 468 539 35,000  Level FlightAware
06:19AM 49.9150 21.1960 113° Southeast 469 540 35,000  Level FlightAware
06:20AM 49.8780 21.3340 113° Southeast 469 540 35,000  Level FlightAware
06:21AM 49.8430 21.4590 113° Southeast 469 540 35,000  Level FlightAware
06:22AM 49.8060 21.5950 113° Southeast 471 542 35,000  Level FlightAware
06:22AM 49.7710 21.7200 113° Southeast 473 544 35,000  Level FlightAware
06:23AM 49.7360 21.8450 113° Southeast 472 543 35,000  Level FlightAware
06:24AM 49.6960 21.9870 113° Southeast 470 541 35,000  Level FlightAware
06:24AM 49.6640 22.1010 113° Southeast 469 540 35,000  Level FlightAware
06:25AM 49.6250 22.2370 114° Southeast 468 539 35,000  Level FlightAware
06:26AM 49.5880 22.3670 114° Southeast 468 539 35,000  Level FlightAware
06:27AM 49.5500 22.5010 114° Southeast 467 537 35,000  Level FlightAware
06:27AM 49.5140 22.6220 115° Southeast 466 536 35,000  Level FlightAware
06:28AM 49.4720 22.7380 119° Southeast 460 529 35,000  Level FlightAware
06:29AM 49.4190 22.8570 124° Southeast 459 528 35,000  Level FlightAware
06:29AM 49.3720 22.9630 124° Southeast 461 531 35,000  Level FlightAware
06:30AM 49.3240 23.0690 125° Southeast 461 531 35,000  Level FlightAware
06:31AM 49.2680 23.1940 124° Southeast 460 529 35,000  Level FlightAware
06:31AM 49.2200 23.3000 125° Southeast 462 532 35,000  Level FlightAware
06:32AM 49.1720 23.4060 125° Southeast 463 533 35,000  Level FlightAware
06:33AM 49.1170 23.5260 125° Southeast 462 532 35,000  Level FlightAware
06:33AM 49.0660 23.6360 125° Southeast 462 532 35,000  Level FlightAware
06:34AM 49.0100 23.7600 125° Southeast 462 532 35,000  Level FlightAware
06:35AM 48.9610 23.8650 125° Southeast 463 533 35,000  Level FlightAware
06:36AM 48.9110 23.9730 125° Southeast 464 534 35,000  Level FlightAware
06:36AM 48.8620 24.0770 126° Southeast 464 534 35,000  Level FlightAware
06:38AM 48.7380 24.3410 125° Southeast 459 528 35,000  Level FlightAware
06:39AM 48.6840 24.4560 125° Southeast 457 526 35,000  Level FlightAware
06:39AM 48.6360 24.5570 126° Southeast 456 525 35,000  Level FlightAware
06:40AM 48.5860 24.6620 126° Southeast 454 522 35,000  Level FlightAware
06:41AM 48.5300 24.7780 126° Southeast 454 522 35,000  Level FlightAware
06:41AM 48.4800 24.8830 126° Southeast 452 520 35,000  Level FlightAware
06:42AM 48.4260 24.9950 126° Southeast 452 520 35,000  Level FlightAware
06:43AM 48.3770 25.0950 126° Southeast 453 521 35,000  Level FlightAware
06:43AM 48.3280 25.1960 126° Southeast 455 524 35,000  Level FlightAware
06:44AM 48.2700 25.3150 126° Southeast 455 524 35,000  Level FlightAware
06:45AM 48.2200 25.4170 126° Southeast 455 524 35,000  Level FlightAware
06:46AM 48.1680 25.5240 126° Southeast 454 522 35,000  Level FlightAware
06:46AM 48.1090 25.6420 127° Southeast 454 522 35,000  Level FlightAware
06:47AM 48.0590 25.7440 126° Southeast 453 521 35,000  Level FlightAware
06:48AM 48.0090 25.8440 127° Southeast 453 521 35,000  Level FlightAware
06:48AM 47.9560 25.9570 125° Southeast 452 520 35,000  Level FlightAware
06:49AM 47.9190 26.0670 117° Southeast 451 519 35,000  Level FlightAware
06:50AM 47.8810 26.1970 114° Southeast 450 518 35,000  Level FlightAware
06:51AM 47.8470 26.3110 114° Southeast 450 518 35,000  Level FlightAware
06:51AM 47.8130 26.4250 114° Southeast 448 516 35,000  Level FlightAware
06:52AM 47.7760 26.5490 114° Southeast 448 516 35,000  Level FlightAware
06:53AM 47.7430 26.6590 114° Southeast 449 517 35,000  Level FlightAware
06:53AM 47.7040 26.7880 114° Southeast 449 517 35,000  Level FlightAware
06:54AM 47.6700 26.8990 114° Southeast 450 518 35,000  Level FlightAware
06:55AM 47.6340 27.0140 115° Southeast 451 519 35,000  Level FlightAware
06:55AM 47.5970 27.1370 114° Southeast 451 519 35,000  Level FlightAware
06:56AM 47.5620 27.2480 115° Southeast 451 519 35,000  Level FlightAware
06:57AM 47.5220 27.3770 115° Southeast 451 519 35,000  Level FlightAware
06:58AM 47.4870 27.4890 115° Southeast 451 519 35,000  Level FlightAware
06:58AM 47.4510 27.6000 116° Southeast 452 520 35,000  Level FlightAware
06:59AM 47.4000 27.7160 123° Southeast 457 526 35,000  Level FlightAware
07:00AM 47.3500 27.8140 127° Southeast 455 524 35,000  Level FlightAware
07:00AM 47.3000 27.9120 127° Southeast 454 522 35,000  Level FlightAware
07:01AM 47.2410 28.0270 127° Southeast 455 524 35,000  Level FlightAware
07:02AM 47.1910 28.1240 127° Southeast 455 524 35,000  Level FlightAware
07:02AM 47.1350 28.2320 127° Southeast 457 526 35,000  Level FlightAware
07:03AM 47.0840 28.3300 127° Southeast 457 526 35,000  Level FlightAware
07:04AM 47.0250 28.4440 127° Southeast 456 525 35,000  Level FlightAware
07:05AM 46.9730 28.5430 128° Southeast 455 524 35,000  Level FlightAware
07:05AM 46.9220 28.6410 127° Southeast 454 522 35,000  Level FlightAware
07:06AM 46.8670 28.7460 127° Southeast 453 521 35,000  Level FlightAware
07:07AM 46.8160 28.8440 127° Southeast 451 519 35,000  Level FlightAware
07:07AM 46.7650 28.9610 122° Southeast 448 516 35,000  Level FlightAware
07:08AM 46.7270 29.0510 122° Southeast 448 516 35,000  Level FlightAware
07:09AM 46.6840 29.1480 123° Southeast 444 511 35,000  Level FlightAware
07:09AM 46.6320 29.2680 122° Southeast 443 510 35,000  Level FlightAware
07:10AM 46.5850 29.3760 122° Southeast 443 510 35,000  Level FlightAware
07:11AM 46.5450 29.4680 122° Southeast 446 513 35,000  Level FlightAware
07:12AM 46.4990 29.5760 122° Southeast 451 519 35,000  Level FlightAware
07:12AM 46.4550 29.6790 122° Southeast 454 522 35,000  Level FlightAware
07:13AM 46.4070 29.7910 122° Southeast 455 524 35,000  Level FlightAware
07:14AM 46.3430 29.8850 135° Southeast 459 528 35,000  Level FlightAware
07:14AM 46.2680 29.9720 141° Southeast 458 527 35,000  Level FlightAware
07:15AM 46.2060 30.0420 142° Southeast 457 526 35,000  Level FlightAware
07:16AM 46.1420 30.1160 141° Southeast 458 527 35,000  Level FlightAware
07:16AM 46.0750 30.1930 141° Southeast 462 532 35,000  Level FlightAware
07:17AM 45.9940 30.2860 141° Southeast 464 534 35,000  Level FlightAware
07:18AM 45.9290 30.3600 142° Southeast 466 536 35,000  Level FlightAware
07:19AM 45.8490 30.4510 142° Southeast 467 537 35,000  Level FlightAware
07:19AM 45.7860 30.5220 142° Southeast 469 540 35,000  Level FlightAware
07:21AM 45.6370 30.6920 141° Southeast 467 537 35,000  Level FlightAware
07:23AM 45.4532 30.9676 133° Southeast  Level Estimated
07:23AM 45.4260 30.9280 133° Southeast 468 539 35,000  Level FlightAware
07:23AM 45.3560 31.0050 142° Southeast 468 539 35,000  Level FlightAware
07:24AM 45.2640 31.1070 142° Southeast 468 539 35,000  Level FlightAware
07:25AM 45.1810 31.2100 139° Southeast 470 541 35,000  Level FlightAware
07:27AM 45.0300 31.4060 137° Southeast 469 540 35,000  Level FlightAware
07:28AM 44.9090 31.5610 138° Southeast 468 539 35,000  Level FlightAware
07:30AM 44.7070 31.8140 138° Southeast 465 535 35,000  Level FlightAware
07:32AM 44.5390 32.0250 138° Southeast 463 533 35,000  Level FlightAware
07:34AM 44.3695 32.2689 134° Southeast  Level Estimated
07:34AM 44.3590 32.2390 134° Southeast 463 533 35,000  Level FlightAware
07:35AM 44.2700 32.3450 140° Southeast 463 533 35,000  Level FlightAware
07:35AM 44.2070 32.4190 140° Southeast 464 534 35,000  Level FlightAware
07:36AM 44.1040 32.5400 140° Southeast 465 535 35,000  Level FlightAware
07:37AM 44.0470 32.6110 138° Southeast 465 535 35,000  Level FlightAware
07:38AM 43.9930 32.6790 138° Southeast 465 535 35,000  Level FlightAware
07:38AM 43.9250 32.7640 138° Southeast 465 535 35,000  Level FlightAware
07:39AM 43.8700 32.8320 138° Southeast 465 535 35,000  Level FlightAware
07:40AM 43.8160 32.9000 138° Southeast 465 535 35,000  Level FlightAware
07:42AM 43.6369 33.1507 135° Southeast  Level Estimated
07:43AM 43.5372 33.2893 135° Southeast  Level Estimated
07:44AM 43.4372 33.4275 135° Southeast  Level Estimated
07:45AM 43.3372 33.5652 135° Southeast  Level Estimated
07:46AM 43.2369 33.7025 135° Southeast  Level Estimated
07:47AM 43.1365 33.8393 135° Southeast  Level Estimated
07:48AM 43.0360 33.9756 135° Southeast  Level Estimated
07:49AM 42.9352 34.1115 135° Southeast  Level Estimated
07:50AM 42.8344 34.2470 135° Southeast  Level Estimated
07:51AM 42.7333 34.3820 136° Southeast  Level Estimated
07:52AM 42.6321 34.5166 136° Southeast  Level Estimated
07:53AM 42.5308 34.6508 136° Southeast  Level Estimated
07:54AM 42.4293 34.7845 136° Southeast  Level Estimated
07:55AM 42.3276 34.9178 136° Southeast  Level Estimated
07:56AM 42.2258 35.0506 136° Southeast  Level Estimated
07:57AM 42.1238 35.1830 136° Southeast  Level Estimated
07:58AM 42.0217 35.3150 136° Southeast  Level Estimated
07:59AM 41.9194 35.4466 136° Southeast  Level Estimated
08:00AM 41.8170 35.5778 136° Southeast  Level Estimated
08:01AM 41.7144 35.7085 136° Southeast  Level Estimated
08:02AM 41.6116 35.8388 136° Southeast  Level Estimated
08:03AM 41.5088 35.9687 137° Southeast  Level Estimated
08:04AM 41.4058 36.0982 137° Southeast  Level Estimated
08:05AM 41.3026 36.2273 137° Southeast  Level Estimated
08:06AM 41.1993 36.3560 137° Southeast  Level Estimated
08:07AM 41.0958 36.4842 137° Southeast  Level Estimated
08:08AM 40.9922 36.6121 137° Southeast  Level Estimated
08:09AM 40.8885 36.7396 137° Southeast  Level Estimated
08:10AM 40.7846 36.8666 137° Southeast  Level Estimated
08:11AM 40.6806 36.9933 137° Southeast  Level Estimated
08:12AM 40.5765 37.1195 137° Southeast  Level Estimated
08:13AM 40.4722 37.2454 137° Southeast  Level Estimated
08:14AM 40.3678 37.3709 138° Southeast  Level Estimated
08:15AM 40.2632 37.4960 138° Southeast  Level Estimated
08:16AM 40.1585 37.6207 138° Southeast  Level Estimated
08:17AM 40.0537 37.7450 138° Southeast  Level Estimated
08:18AM 39.9488 37.8690 138° Southeast  Level Estimated
08:19AM 39.8437 37.9925 138° Southeast  Level Estimated
08:20AM 39.7384 38.1157 138° Southeast  Level Estimated
08:21AM 39.6331 38.2385 138° Southeast  Level Estimated
08:22AM 39.5276 38.3610 138° Southeast  Level Estimated
08:23AM 39.4220 38.4831 138° Southeast  Level Estimated
08:24AM 39.3163 38.6048 138° Southeast  Level Estimated
08:25AM 39.2104 38.7261 138° Southeast  Level Estimated
08:26AM 39.1044 38.8470 138° Southeast  Level Estimated
08:27AM 38.9983 38.9677 139° Southeast  Level Estimated
08:28AM 38.8921 39.0879 139° Southeast  Level Estimated
08:29AM 38.7857 39.2078 139° Southeast  Level Estimated
08:30AM 38.6793 39.3273 139° Southeast  Level Estimated
08:31AM 38.5727 39.4465 139° Southeast  Level Estimated
08:32AM 38.4659 39.5653 139° Southeast  Level Estimated
08:33AM 38.3591 39.6837 139° Southeast  Level Estimated
08:34AM 38.2521 39.8018 139° Southeast  Level Estimated
08:35AM 38.1451 39.9196 139° Southeast  Level Estimated
08:36AM 38.0379 40.0370 139° Southeast  Level Estimated
08:37AM 37.9306 40.1541 139° Southeast  Level Estimated
08:38AM 37.8231 40.2708 139° Southeast  Level Estimated
08:39AM 37.7156 40.3872 139° Southeast  Level Estimated
08:40AM 37.6079 40.5033 139° Southeast  Level Estimated
08:41AM 37.5002 40.6190 140° Southeast  Level Estimated
08:42AM 37.3923 40.7344 140° Southeast  Level Estimated
08:43AM 37.2843 40.8495 140° Southeast  Level Estimated
08:44AM 37.1762 40.9642 140° Southeast  Level Estimated
08:45AM 37.0680 41.0786 140° Southeast  Level Estimated
08:46AM 36.9597 41.1927 140° Southeast  Level Estimated
08:47AM 36.8512 41.3064 140° Southeast  Level Estimated
08:48AM 36.7427 41.4198 140° Southeast  Level Estimated
08:49AM 36.6340 41.5330 140° Southeast  Level Estimated
08:50AM 36.5253 41.6457 140° Southeast  Level Estimated
08:51AM 36.4164 41.7582 140° Southeast  Level Estimated
08:51AM 38.1230 42.0050 140° Southeast 468 539 37,000  Level FlightAware
08:51AM 38.0690 42.0920 128° Southeast 468 539 37,000  Level FlightAware
08:52AM 38.0070 42.1900 129° Southeast 466 536 37,000  Level FlightAware
08:53AM 37.9520 42.2780 128° Southeast 466 536 37,000  Level FlightAware
08:53AM 37.8930 42.3710 129° Southeast 467 537 37,000  Level FlightAware
08:54AM 37.8390 42.4560 129° Southeast 470 541 37,000  Level FlightAware
08:55AM 37.7840 42.5420 129° Southeast 470 541 37,000  Level FlightAware
08:56AM 37.7230 42.6380 129° Southeast 473 544 37,000  Level FlightAware
08:56AM 37.6660 42.7270 129° Southeast 475 547 37,000  Level FlightAware
08:57AM 37.6130 42.8090 129° Southeast 476 548 37,000  Level FlightAware
08:58AM 37.5500 42.9080 129° Southeast 478 550 37,000  Level FlightAware
08:58AM 37.4930 42.9960 129° Southeast 480 552 37,000  Level FlightAware
08:59AM 37.4290 43.0950 129° Southeast 479 551 37,000  Level FlightAware
09:00AM 37.3750 43.1770 130° Southeast 474 545 37,000  Level FlightAware
09:00AM 37.3040 43.2420 144° Southeast 453 521 37,000  Level FlightAware
09:01AM 37.2220 43.2900 155° Southeast 448 516 37,000  Level FlightAware
09:02AM 37.1440 43.3330 156° South 447 514 37,000  Level FlightAware
09:03AM 37.0590 43.3810 156° South 448 516 37,000  Level FlightAware
09:03AM 36.9810 43.4240 156° South 449 517 37,000  Level FlightAware
09:04AM 36.9080 43.4660 155° Southeast 449 517 37,000  Level FlightAware
09:05AM 36.8230 43.5130 156° South 448 516 37,000  Level FlightAware
09:05AM 36.7480 43.5550 156° South 447 514 37,000  Level FlightAware
09:06AM 36.6150 43.6240 157° South 446 513 37,000  Level FlightAware
09:07AM 36.5380 43.6640 157° South 445 512 37,000  Level FlightAware
09:08AM 36.4620 43.7040 157° South 446 513 37,000  Level FlightAware
09:08AM 36.3970 43.7380 157° South 446 513 37,000  Level FlightAware
09:09AM 36.3290 43.7730 157° South 446 513 37,000  Level FlightAware
09:10AM 36.2420 43.8180 157° South 445 512 37,000  Level FlightAware
09:10AM 36.1690 43.8570 157° South 445 512 37,000  Level FlightAware
09:11AM 36.0820 43.9030 157° South 443 510 37,000  Level FlightAware
09:12AM 36.0060 43.9420 157° South 444 511 37,000  Level FlightAware
09:12AM 35.9320 43.9810 157° South 446 513 37,000  Level FlightAware
09:13AM 35.8550 44.0210 157° South 446 513 37,000  Level FlightAware
09:14AM 35.7770 44.0520 162° South 443 510 37,000  Level FlightAware
09:15AM 35.6770 44.0890 163° South 444 511 37,000  Level FlightAware
09:15AM 35.6210 44.1100 163° South 444 511 37,000  Level FlightAware
09:16AM 35.5410 44.1400 163° South 447 514 37,000  Level FlightAware
09:16AM 35.4600 44.1700 163° South 449 517 37,000  Level FlightAware
09:17AM 35.3720 44.2030 163° South 452 520 37,000  Level FlightAware
09:18AM 35.2880 44.2340 163° South 453 521 37,000  Level FlightAware
09:19AM 35.2000 44.2670 163° South 454 522 37,000  Level FlightAware
09:19AM 35.1200 44.2960 163° South 455 524 37,000  Level FlightAware
09:20AM 35.0390 44.3270 163° South 457 526 37,000  Level FlightAware
09:21AM 34.9440 44.3620 163° South 459 528 37,000  Level FlightAware
09:21AM 34.8640 44.3920 163° South 460 529 37,000  Level FlightAware
09:22AM 34.7890 44.4320 156° South 468 539 37,000  Level FlightAware
09:23AM 34.6990 44.4840 155° Southeast 469 540 37,000  Level FlightAware
09:23AM 34.6190 44.5270 156° South 469 540 37,000  Level FlightAware
09:24AM 34.5280 44.5750 157° South 469 540 37,000  Level FlightAware
09:25AM 34.4510 44.6160 156° South 472 543 37,000  Level FlightAware
09:26AM 34.3700 44.6610 155° Southeast 472 543 37,000  Level FlightAware
09:26AM 34.2850 44.7090 155° Southeast 472 543 37,000  Level FlightAware
09:27AM 34.1700 44.7730 155° Southeast 471 542 37,000  Level FlightAware
09:28AM 34.0930 44.8160 155° Southeast 472 543 37,000  Level FlightAware
09:28AM 34.0340 44.8480 156° South 472 543 37,000  Level FlightAware
09:29AM 33.9230 44.9090 155° Southeast 472 543 37,000  Level FlightAware
09:30AM 33.8380 44.9560 155° Southeast 471 542 37,000  Level FlightAware
09:31AM 33.7560 45.0010 155° Southeast 468 539 37,000  Level FlightAware
09:31AM 33.6800 45.0430 155° Southeast 466 536 37,000  Level FlightAware
09:32AM 33.5890 45.0930 155° Southeast 471 542 37,000  Level FlightAware
09:33AM 33.5070 45.1370 156° South 475 547 37,000  Level FlightAware
09:33AM 33.4280 45.1810 155° Southeast 478 550 37,000  Level FlightAware
09:34AM 33.3390 45.2290 156° South 480 552 37,000  Level FlightAware
09:35AM 33.2580 45.2720 156° South 477 549 37,000  Level FlightAware
09:36AM 33.1680 45.3160 158° South 473 544 37,000  Level FlightAware
09:36AM 33.0750 45.3610 158° South 473 544 37,000  Level FlightAware
09:37AM 32.9940 45.4010 157° South 473 544 37,000  Level FlightAware
09:38AM 32.9150 45.4410 157° South 474 545 37,000  Level FlightAware
09:38AM 32.8400 45.4780 157° South 474 545 37,000  Level FlightAware
09:39AM 32.7720 45.5130 157° South 474 545 37,000  Level FlightAware
09:40AM 32.6860 45.5560 157° South 474 545 37,000  Level FlightAware
09:41AM 32.6170 45.5910 157° South 474 545 37,000  Level FlightAware
09:41AM 32.5490 45.6250 157° South 474 545 37,000  Level FlightAware
09:42AM 32.4800 45.6600 157° South 474 545 37,000  Level FlightAware
09:43AM 32.4110 45.6940 157° South 474 545 37,000  Level FlightAware
09:43AM 32.3600 45.7200 157° South 474 545 37,000  Level FlightAware
09:44AM 32.2740 45.7630 157° South 474 545 37,000  Level FlightAware
09:45AM 32.2060 45.7980 156° South 474 545 37,000  Level FlightAware
09:45AM 32.1370 45.8320 157° South 474 545 37,000  Level FlightAware
09:46AM 32.0850 45.8580 157° South 474 545 37,000  Level FlightAware
09:46AM 32.0170 45.8920 157° South 474 545 37,000  Level FlightAware
09:47AM 31.9480 45.9270 157° South 474 545 37,000  Level FlightAware
09:48AM 31.8800 45.9610 157° South 474 545 37,000  Level FlightAware
09:50AM 31.6792 46.1454 142° Southeast  Level Estimated
09:51AM 31.5675 46.2474 142° Southeast  Level Estimated
09:52AM 31.4557 46.3493 142° Southeast  Level Estimated
09:53AM 31.3438 46.4509 142° Southeast  Level Estimated
09:53AM 31.2760 47.0390 142° Southeast 517 595 37,000  Level FlightAware
09:54AM 31.2380 47.0810 137° Southeast 517 595 37,000  Level FlightAware
09:54AM 31.1530 47.1690 138° Southeast 516 594 37,000  Level FlightAware
09:55AM 31.0910 47.2370 137° Southeast 516 594 37,000  Level FlightAware
09:56AM 30.9710 47.3630 138° Southeast 517 595 37,000  Level FlightAware
09:57AM 30.8740 47.4660 138° Southeast 517 595 37,000  Level FlightAware
09:58AM 30.8090 47.5310 139° Southeast 519 597 37,000  Level FlightAware
09:58AM 30.7430 47.6010 138° Southeast 518 596 37,000  Level FlightAware
09:59AM 30.6830 47.6640 138° Southeast 515 593 37,000  Level FlightAware
10:00AM 30.5950 47.7550 138° Southeast 517 595 37,000  Level FlightAware
10:00AM 30.4970 47.8560 138° Southeast 520 598 37,000  Level FlightAware
10:01AM 30.4090 47.9480 138° Southeast 523 602 37,000  Level FlightAware
10:02AM 30.3370 48.0220 138° Southeast 524 603 37,000  Level FlightAware
10:03AM 30.2450 48.1170 138° Southeast 524 603 37,000  Level FlightAware
10:04AM 30.1560 48.2100 138° Southeast 524 603 37,000  Level FlightAware
10:05AM 30.0250 48.3420 139° Southeast 523 602 37,000  Level FlightAware
10:06AM 29.9460 48.4240 138° Southeast 522 601 37,000  Level FlightAware
10:06AM 29.8860 48.4810 141° Southeast 513 590 37,000  Level FlightAware
10:07AM 29.7930 48.5450 149° Southeast 498 573 37,000  Level FlightAware
10:08AM 29.7050 48.5960 153° Southeast 497 572 37,000  Level FlightAware
10:08AM 29.6430 48.6320 153° Southeast 497 572 37,000  Level FlightAware
10:09AM 29.5530 48.6840 153° Southeast 498 573 37,000  Level FlightAware
10:10AM 29.4700 48.7320 153° Southeast 498 573 37,000  Level FlightAware
10:10AM 29.3600 48.7950 153° Southeast 494 568 37,000  Level FlightAware
10:11AM 29.2490 48.8530 155° Southeast 494 568 37,000  Level FlightAware
10:12AM 29.1790 48.8910 155° Southeast 494 568 37,000  Level FlightAware
10:13AM 29.0080 48.9910 153° Southeast 502 578 37,000  Level FlightAware
10:14AM 28.9560 49.0230 152° Southeast 502 578 37,000  Level FlightAware
10:14AM 28.8580 49.0810 153° Southeast 504 580 37,000  Level FlightAware
10:15AM 28.7780 49.1290 152° Southeast 503 579 37,000  Level FlightAware
10:16AM 28.6820 49.1850 153° Southeast 504 580 37,000  Level FlightAware
10:17AM 28.6050 49.2320 152° Southeast 504 580 37,000  Level FlightAware
10:17AM 28.5260 49.2780 153° Southeast 504 580 37,000  Level FlightAware
10:18AM 28.4560 49.3200 152° Southeast 504 580 37,000  Level FlightAware
10:19AM 28.3860 49.3620 152° Southeast 504 580 37,000  Level FlightAware
10:19AM 28.2980 49.4150 152° Southeast 504 580 37,000  Level FlightAware
10:20AM 28.2280 49.4580 152° Southeast 504 580 37,000  Level FlightAware
10:21AM 28.1580 49.5000 152° Southeast 504 580 37,000  Level FlightAware
10:21AM 28.0880 49.5420 152° Southeast 504 580 37,000 -660 Level FlightAware
10:24AM 27.8447 49.7210 147° Southeast  Level Estimated
10:25AM 27.7260 49.8080 147° Southeast  Level Estimated
10:26AM 27.6071 49.8948 147° Southeast  Level Estimated
10:27AM 27.4883 49.9815 147° Southeast  Level Estimated
10:28AM 27.3694 50.0679 147° Southeast  Level Estimated
10:29AM 27.2504 50.1542 147° Southeast  Level Estimated
10:30AM 27.1314 50.2403 147° Southeast  Level Estimated
10:31AM 27.0123 50.3262 147° Southeast  Level Estimated
10:32AM 26.8932 50.4119 147° Southeast  Level Estimated
10:33AM 26.7740 50.4974 147° Southeast  Level Estimated
10:34AM 26.6547 50.5828 147° Southeast  Level Estimated
10:35AM 26.5355 50.6680 147° Southeast  Level Estimated
10:35AM 26.3950 50.8260 147° Southeast 490 564 28,300  Level FlightAware
10:36AM 26.3580 50.9060 117° Southeast 485 558 27,300 -1,680 Descending FlightAware
10:36AM 26.3160 51.0050 115° Southeast 471 542 26,100 -1,620 Descending FlightAware
10:37AM 26.2880 51.0700 116° Southeast 463 533 25,300 -960 Descending FlightAware
10:38AM 26.2470 51.1650 116° Southeast 458 527 24,900 -780 Descending FlightAware
10:38AM 26.2100 51.2390 119° Southeast 436 502 24,300 -1,140 Descending FlightAware
10:39AM 26.1690 51.2970 128° Southeast 416 479 23,600 -1,080 Descending FlightAware
10:40AM 26.1080 51.3700 133° Southeast 401 461 22,900 -1,200 Descending FlightAware
10:40AM 26.0630 51.4210 134° Southeast 401 461 22,000 -1,440 Descending FlightAware
10:41AM 25.9990 51.4950 134° Southeast 394 453 20,900 -1,440 Descending FlightAware
10:42AM 25.9490 51.5530 134° Southeast 382 440 19,900 -1,680 Descending FlightAware
10:42AM 25.9060 51.6030 134° Southeast 378 435 18,800 -2,040 Descending FlightAware
10:43AM 25.8690 51.6460 134° Southeast 376 433 17,700 -2,100 Descending FlightAware
10:43AM 25.8220 51.6970 136° Southeast 373 429 16,400 -2,160 Descending FlightAware
10:44AM 25.7740 51.7220 155° Southeast 370 426 15,200 -2,040 Descending FlightAware
10:44AM 25.7230 51.7390 163° South 356 410 14,400 -1,380 Descending FlightAware
10:45AM 25.6600 51.7590 164° South 355 409 13,600 -900 Descending FlightAware
10:46AM 25.5950 51.7800 164° South 351 404 13,200 -360 Descending FlightAware
10:46AM 25.5240 51.8020 164° South 348 400 13,100 -840 Descending FlightAware
10:47AM 25.4710 51.7930 189° South 331 381 12,100 -1,740 Descending FlightAware
10:47AM 25.4570 51.7830 213° Southwest 324 373 11,800 -1,740 Descending FlightAware
10:48AM 25.4160 51.7460 219° Southwest 320 368 10,800 -1,380 Descending FlightAware
10:49AM 25.3680 51.7010 220° Southwest 286 329 10,000 -1,200 Descending FlightAware
10:49AM 25.3550 51.6940 206° Southwest 300 345 9,700 -2,100 Descending FlightAware
10:49AM 25.3400 51.6910 190° South 310 357 9,300 -2,040 Descending FlightAware
10:49AM 25.3110 51.7000 164° South 315 362 8,700 -1,800 Descending FlightAware
10:50AM 25.2710 51.7220 154° Southeast 312 359 7,800 -1,800 Descending FlightAware
10:50AM 25.2460 51.7370 152° Southeast 311 358 7,200 -1,740 Descending FlightAware
10:50AM 25.2140 51.7550 153° Southeast 307 353 6,500 -1,440 Descending FlightAware
10:51AM 25.1820 51.7730 153° Southeast 294 338 6,000 -840 Descending FlightAware
10:51AM 25.1580 51.7870 152° Southeast 278 320 5,800 -240 Descending FlightAware
10:52AM 25.1330 51.8030 150° Southeast 278 320 5,800 -720 Level FlightAware
10:52AM 25.1190 51.8100 156° South 259 298 5,400 -720 Descending FlightAware
10:52AM 25.0950 51.8250 150° Southeast 259 298 5,400 -240 Level FlightAware
10:55AM 25.2611 51.5651 305° West  Level Estimated
10:55AM 24.9060 51.8730 305° West 216 249 4,600  Level FlightAware